Time;durP1;ratioP1;P1;durP2;ratioP2;P2;SDS_P1;SDS_P2;PMS_P1;PMS_P2;Temp;Humidity;BMP_temperature;BMP_pressure;BME280_temperature;BME280_humidity;BME280_pressure;Samples;Min_cycle;Max_cycle;Signal;HPM_P1;HPM_P2
2022/01/31 00:00:55;;;;;;;6.07;2.70;;;;;;;3.47;84.04;97101.63;5098378;28;20236;-69
2022/01/31 00:03:21;;;;;;;3.93;2.60;;;;;;;3.46;84.46;97092.09;5098607;28;20198;-68
2022/01/31 00:05:48;;;;;;;4.83;2.90;;;;;;;3.47;84.03;97091.16;5098122;28;20240;-69
2022/01/31 00:08:20;;;;;;;9.00;2.83;;;;;;;3.45;84.43;97099.09;5082481;28;20542;-68
2022/01/31 00:10:47;;;;;;;5.13;3.53;;;;;;;3.44;84.24;97086.09;5078095;28;20206;-67
2022/01/31 00:13:20;;;;;;;6.23;3.10;;;;;;;3.46;84.01;97079.88;5078820;28;20218;-68
2022/01/31 00:15:54;;;;;;;5.17;2.90;;;;;;;3.52;83.71;97073.44;5078097;28;20710;-68
2022/01/31 00:18:21;;;;;;;5.27;2.73;;;;;;;3.48;84.12;97056.22;5078090;28;20206;-68
2022/01/31 00:20:48;;;;;;;4.87;2.93;;;;;;;3.51;84.35;97042.97;5078080;28;20202;-68
2022/01/31 00:23:14;;;;;;;6.40;3.03;;;;;;;3.56;84.05;97042.72;5077834;28;20542;-67
2022/01/31 00:25:41;;;;;;;6.10;3.20;;;;;;;3.61;83.89;97046.75;5078358;28;20210;-68
2022/01/31 00:28:07;;;;;;;5.83;2.90;;;;;;;3.61;83.86;97040.69;5077918;28;20606;-67
2022/01/31 00:30:35;;;;;;;5.20;2.70;;;;;;;3.63;83.94;97042.25;5076905;28;20641;-68
2022/01/31 00:33:02;;;;;;;7.50;3.20;;;;;;;3.66;84.06;97036.84;5076838;28;20648;-67
2022/01/31 00:35:28;;;;;;;6.70;2.80;;;;;;;3.71;83.74;97032.19;5077494;28;20229;-69
2022/01/31 00:37:54;;;;;;;4.40;2.87;;;;;;;3.68;84.70;97026.31;5077373;28;20206;-68
2022/01/31 00:40:21;;;;;;;7.43;3.20;;;;;;;3.70;84.63;97020.03;5082311;28;20213;-69
2022/01/31 00:42:47;;;;;;;7.47;3.27;;;;;;;3.74;84.39;97005.84;5095984;28;20241;-68
2022/01/31 00:45:18;;;;;;;4.70;2.80;;;;;;;3.75;84.12;97001.47;5077417;28;20206;-68
2022/01/31 00:47:49;;;;;;;7.03;3.13;;;;;;;3.79;84.23;97001.16;5084841;28;20204;-69
2022/01/31 00:50:18;;;;;;;7.03;3.10;;;;;;;3.70;84.99;96978.19;5097339;28;20568;-67
2022/01/31 00:52:45;;;;;;;5.00;2.67;;;;;;;3.76;84.86;96979.59;5097635;28;20587;-68
2022/01/31 00:55:14;;;;;;;3.90;2.80;;;;;;;3.75;85.11;96959.63;5097219;28;20205;-68
2022/01/31 00:57:41;;;;;;;7.43;3.20;;;;;;;3.79;84.97;96967.16;5097451;28;20194;-69
2022/01/31 01:00:09;;;;;;;6.13;2.87;;;;;;;3.79;84.89;96969.78;5097330;28;20214;-67
2022/01/31 01:02:35;;;;;;;5.90;2.97;;;;;;;3.80;85.05;96968.84;5096940;28;20233;-68
2022/01/31 01:05:04;;;;;;;3.50;2.90;;;;;;;3.83;85.27;96960.81;5097169;28;20216;-67
2022/01/31 01:07:30;;;;;;;8.47;3.00;;;;;;;3.83;84.96;96966.03;5088067;28;20211;-69
2022/01/31 01:09:57;;;;;;;8.10;3.10;;;;;;;3.88;84.97;96961.38;5077598;28;20215;-67
2022/01/31 01:12:23;;;;;;;5.30;3.10;;;;;;;3.85;85.17;96951.09;5076388;28;20202;-68
2022/01/31 01:14:50;;;;;;;6.13;3.20;;;;;;;3.86;84.78;96934.44;5077241;28;20244;-68
2022/01/31 01:17:17;;;;;;;5.20;3.07;;;;;;;3.93;84.57;96932.31;5087128;28;20204;-68
2022/01/31 01:19:44;;;;;;;7.43;3.23;;;;;;;3.94;84.11;96934.81;5099216;28;20179;-69
2022/01/31 01:22:12;;;;;;;5.03;2.73;;;;;;;3.96;84.37;96937.38;5098746;28;20210;-68
2022/01/31 01:24:39;;;;;;;5.70;3.10;;;;;;;4.04;84.08;96935.09;5086281;28;20202;-68
2022/01/31 01:27:08;;;;;;;6.50;3.37;;;;;;;4.00;84.37;96934.44;5086634;28;20207;-69
2022/01/31 01:29:34;;;;;;;6.67;3.10;;;;;;;4.01;84.83;96935.28;5083969;28;20277;-69
2022/01/31 01:32:01;;;;;;;4.97;2.63;;;;;;;4.04;84.68;96952.59;5101528;28;20241;-69
2022/01/31 01:34:31;;;;;;;4.70;3.50;;;;;;;4.06;84.05;96958.56;5117932;28;20204;-68
2022/01/31 01:36:58;;;;;;;5.27;3.30;;;;;;;4.09;83.60;96958.34;5115201;28;20201;-67
2022/01/31 01:39:26;;;;;;;7.07;3.63;;;;;;;4.13;82.38;96965.09;5115674;28;20229;-68
2022/01/31 01:41:53;;;;;;;5.57;3.43;;;;;;;4.26;81.46;96964.22;5116935;28;20212;-68
2022/01/31 01:44:19;;;;;;;8.63;3.93;;;;;;;4.33;80.74;96969.91;5099596;28;20530;-68
2022/01/31 01:46:46;;;;;;;6.93;3.67;;;;;;;4.31;81.03;96974.41;5096333;28;20213;-69
2022/01/31 01:49:12;;;;;;;8.23;4.10;;;;;;;4.33;80.75;96962.03;5096137;28;20242;-67
2022/01/31 01:51:39;;;;;;;6.60;3.93;;;;;;;4.33;80.64;96952.41;5095955;28;20198;-67
2022/01/31 01:54:05;;;;;;;4.67;3.37;;;;;;;4.37;80.00;96943.44;5096810;28;20206;-69
2022/01/31 01:56:33;;;;;;;6.60;4.00;;;;;;;4.42;79.82;96943.16;5096426;28;20230;-68
2022/01/31 01:59:04;;;;;;;5.30;3.83;;;;;;;4.37;80.37;96935.59;5096035;28;20221;-68
2022/01/31 02:01:33;;;;;;;6.83;3.60;;;;;;;4.45;79.81;96922.84;5095826;28;20217;-68
2022/01/31 02:03:59;;;;;;;6.10;3.50;;;;;;;4.44;79.68;96930.78;5096019;28;20206;-68
2022/01/31 02:06:25;;;;;;;6.70;3.73;;;;;;;4.44;79.99;96928.16;5095635;28;20205;-68
2022/01/31 02:08:52;;;;;;;6.97;3.80;;;;;;;4.38;80.13;96918.09;5076220;28;20203;-67
2022/01/31 02:11:20;;;;;;;7.00;3.90;;;;;;;4.33;79.50;96910.53;5075516;28;20210;-68
2022/01/31 02:13:48;;;;;;;10.33;3.70;;;;;;;4.35;79.54;96923.53;5076315;28;20206;-68
2022/01/31 02:16:15;;;;;;;7.70;3.57;;;;;;;4.39;80.00;96919.78;5077501;28;20206;-68
2022/01/31 02:18:48;;;;;;;5.17;3.23;;;;;;;4.40;79.49;96901.34;5096353;28;20209;-68
2022/01/31 02:21:16;;;;;;;6.37;3.83;;;;;;;4.29;79.06;96895.94;5096477;28;20565;-68
2022/01/31 02:23:42;;;;;;;5.57;3.50;;;;;;;4.36;79.89;96909.50;5098900;28;20206;-68
2022/01/31 02:26:09;;;;;;;8.60;4.20;;;;;;;4.46;79.08;96889.66;5100078;28;20202;-68
2022/01/31 02:28:37;;;;;;;6.10;4.00;;;;;;;4.38;78.99;96870.97;5099654;28;20210;-69
2022/01/31 02:31:04;;;;;;;6.23;4.17;;;;;;;4.36;79.07;96870.22;5099073;28;20218;-67
2022/01/31 02:33:31;;;;;;;6.97;3.97;;;;;;;4.35;78.56;96871.19;5100041;28;20214;-67
2022/01/31 02:36:00;;;;;;;6.67;4.63;;;;;;;4.36;78.50;96872.84;5094859;28;20225;-69
2022/01/31 02:38:29;;;;;;;7.83;4.47;;;;;;;4.29;78.67;96872.41;5078742;28;20218;-69
2022/01/31 02:40:56;;;;;;;5.07;4.30;;;;;;;4.28;78.95;96880.38;5087642;28;20194;-67
2022/01/31 02:43:23;;;;;;;8.63;4.67;;;;;;;4.34;78.59;96886.03;5092213;28;20315;-68
2022/01/31 02:45:49;;;;;;;5.60;4.23;;;;;;;4.26;78.59;96884.84;5080148;28;20647;-67
2022/01/31 02:48:18;;;;;;;5.43;4.03;;;;;;;4.15;78.96;96874.22;5095651;28;20212;-67
2022/01/31 02:50:45;;;;;;;8.43;4.40;;;;;;;4.21;78.69;96873.84;5095125;28;20568;-68
2022/01/31 02:53:14;;;;;;;5.10;4.07;;;;;;;4.24;78.30;96853.53;5095332;28;20552;-66
2022/01/31 02:55:44;;;;;;;6.17;4.00;;;;;;;4.16;78.73;96855.81;5090736;28;20225;-68
2022/01/31 02:58:12;;;;;;;7.93;4.10;;;;;;;4.10;78.15;96834.44;5087951;28;20202;-67
2022/01/31 03:00:39;;;;;;;6.70;4.10;;;;;;;4.04;78.67;96840.06;5095485;28;20232;-68
2022/01/31 03:03:06;;;;;;;4.20;3.80;;;;;;;4.05;77.96;96833.88;5095519;28;20244;-68
2022/01/31 03:05:33;;;;;;;4.93;3.53;;;;;;;4.10;78.13;96816.13;5094924;28;20210;-67
2022/01/31 03:07:59;;;;;;;4.27;3.87;;;;;;;4.10;77.78;96814.34;5082276;28;20206;-68
2022/01/31 03:10:26;;;;;;;5.87;3.97;;;;;;;4.13;77.30;96818.53;5081533;28;20210;-67
2022/01/31 03:12:54;;;;;;;4.63;3.67;;;;;;;4.14;76.95;96807.97;5094939;28;20616;-67
2022/01/31 03:15:20;;;;;;;3.63;3.20;;;;;;;4.10;77.22;96805.66;5095040;28;20198;-68
2022/01/31 03:17:49;;;;;;;5.27;3.80;;;;;;;4.19;76.49;96815.50;5095026;28;20512;-69
2022/01/31 03:20:16;;;;;;;4.73;3.37;;;;;;;4.26;76.40;96824.63;5094987;28;20236;-69
2022/01/31 03:22:43;;;;;;;5.47;4.20;;;;;;;4.21;75.70;96832.81;5095177;28;20221;-68
2022/01/31 03:25:10;;;;;;;5.40;3.70;;;;;;;4.11;75.84;96823.84;5095355;28;20210;-69
2022/01/31 03:27:36;;;;;;;7.03;4.03;;;;;;;4.10;76.75;96813.50;5094546;28;20217;-66
2022/01/31 03:30:05;;;;;;;5.20;3.30;;;;;;;4.14;76.50;96826.28;5078518;28;20210;-69
2022/01/31 03:32:32;;;;;;;4.60;3.63;;;;;;;4.14;76.19;96823.69;5093436;28;20210;-69
2022/01/31 03:34:58;;;;;;;6.80;3.90;;;;;;;4.04;76.14;96829.59;5089249;28;20207;-69
2022/01/31 03:37:25;;;;;;;6.33;3.37;;;;;;;3.98;76.24;96836.91;5083935;28;20226;-68
2022/01/31 03:39:51;;;;;;;4.57;3.40;;;;;;;3.95;77.00;96839.72;5081189;28;20207;-68
2022/01/31 03:42:18;;;;;;;5.77;3.67;;;;;;;3.90;77.07;96839.16;5100776;28;20232;-69
2022/01/31 03:44:45;;;;;;;5.50;3.33;;;;;;;3.97;77.21;96835.22;5078178;28;20211;-68
2022/01/31 03:47:14;;;;;;;9.33;4.03;;;;;;;3.85;77.82;96822.94;5078230;28;20209;-69
2022/01/31 03:49:41;;;;;;;6.73;4.10;;;;;;;4.01;76.44;96818.38;5077872;28;20238;-68
2022/01/31 03:52:07;;;;;;;8.43;3.70;;;;;;;3.95;76.85;96816.16;5078294;28;20206;-68
2022/01/31 03:54:34;;;;;;;5.23;3.43;;;;;;;3.96;77.15;96802.16;5078274;28;20206;-66
2022/01/31 03:57:00;;;;;;;3.30;3.00;;;;;;;3.96;76.71;96773.38;5096985;28;20224;-67
2022/01/31 03:59:27;;;;;;;5.73;3.63;;;;;;;3.71;77.30;96747.13;5088254;28;20214;-65
2022/01/31 04:01:53;;;;;;;5.10;3.53;;;;;;;3.81;76.73;96737.75;5077667;28;20206;-67
2022/01/31 04:04:21;;;;;;;5.27;3.57;;;;;;;3.76;77.06;96759.88;5077970;28;20565;-68
2022/01/31 04:06:48;;;;;;;6.47;4.07;;;;;;;3.79;76.20;96770.97;5081659;28;20209;-67
2022/01/31 04:09:14;;;;;;;4.10;3.27;;;;;;;3.82;77.60;96762.97;5087690;28;20206;-67
2022/01/31 04:11:41;;;;;;;7.53;3.53;;;;;;;3.71;76.76;96773.28;5077922;28;20202;-68
2022/01/31 04:14:08;;;;;;;5.50;3.70;;;;;;;3.77;76.63;96775.50;5077667;28;20233;-68
2022/01/31 04:16:34;;;;;;;6.57;3.90;;;;;;;3.75;76.48;96771.31;5081986;28;20540;-69
2022/01/31 04:19:01;;;;;;;4.33;3.30;;;;;;;3.76;76.75;96779.03;5097693;28;20213;-68
2022/01/31 04:21:29;;;;;;;6.47;4.07;;;;;;;3.85;75.95;96775.84;5097729;28;20276;-68
2022/01/31 04:23:55;;;;;;;5.50;3.37;;;;;;;3.89;75.76;96774.72;5097760;28;20240;-68
2022/01/31 04:26:22;;;;;;;4.53;3.50;;;;;;;3.78;75.77;96764.09;5097494;28;20518;-68
2022/01/31 04:28:50;;;;;;;5.33;3.50;;;;;;;3.80;75.27;96762.22;5097547;28;20674;-69
2022/01/31 04:31:37;;;;;;;4.03;3.13;;;;;;;3.83;75.54;96728.00;5097622;28;20684;-68
2022/01/31 04:34:03;;;;;;;7.40;3.10;;;;;;;4.05;74.41;96726.59;5097774;28;20213;-67
2022/01/31 04:36:31;;;;;;;4.07;3.50;;;;;;;4.04;73.43;96735.41;5097388;28;20209;-67
2022/01/31 04:38:57;;;;;;;5.30;3.50;;;;;;;4.00;73.97;96730.34;5097524;28;20559;-68
2022/01/31 04:41:24;;;;;;;3.30;3.00;;;;;;;4.03;73.79;96723.25;5097379;28;20620;-68
2022/01/31 04:43:51;;;;;;;4.57;3.43;;;;;;;3.98;74.04;96723.56;5088145;28;20237;-67
2022/01/31 04:46:19;;;;;;;5.40;3.80;;;;;;;4.12;73.19;96706.94;5076980;28;20260;-67
2022/01/31 04:48:45;;;;;;;5.30;3.27;;;;;;;4.06;72.92;96700.34;5076318;28;20202;-68
2022/01/31 04:51:12;;;;;;;4.50;3.60;;;;;;;4.08;72.97;96715.91;5076691;28;20218;-67
2022/01/31 04:53:40;;;;;;;5.67;3.57;;;;;;;4.17;72.47;96715.34;5076753;28;20210;-68
2022/01/31 04:56:06;;;;;;;4.00;3.23;;;;;;;4.09;73.00;96715.00;5088646;28;20213;-68
2022/01/31 04:58:33;;;;;;;4.33;3.47;;;;;;;4.09;72.55;96722.84;5097254;28;20213;-67
2022/01/31 05:00:59;;;;;;;6.47;3.40;;;;;;;4.09;72.84;96717.59;5096761;28;20206;-68
2022/01/31 05:03:26;;;;;;;3.90;3.50;;;;;;;4.13;72.54;96724.31;5094320;28;20232;-69
2022/01/31 05:05:53;;;;;;;5.33;3.43;;;;;;;4.22;72.41;96718.47;5076887;28;20609;-68
2022/01/31 05:08:24;;;;;;;4.77;3.07;;;;;;;4.20;72.61;96712.50;5077113;28;20210;-67
2022/01/31 05:10:52;;;;;;;6.13;3.77;;;;;;;4.31;71.87;96696.91;5086191;28;20610;-69
2022/01/31 05:13:19;;;;;;;4.00;3.70;;;;;;;4.14;72.29;96679.75;5096851;28;20223;-69
2022/01/31 05:15:46;;;;;;;4.23;3.73;;;;;;;4.28;72.09;96679.66;5096720;28;20216;-67
2022/01/31 05:18:13;;;;;;;4.23;3.50;;;;;;;4.26;73.07;96664.97;5097233;28;20205;-66
2022/01/31 05:20:40;;;;;;;6.53;3.70;;;;;;;4.33;71.89;96658.38;5096600;28;20214;-67
2022/01/31 05:23:07;;;;;;;4.27;3.87;;;;;;;4.24;72.85;96661.63;5096468;28;20230;-69
2022/01/31 05:25:33;;;;;;;4.70;3.33;;;;;;;4.25;72.99;96661.50;5096558;28;20206;-68
2022/01/31 05:28:01;;;;;;;4.83;3.60;;;;;;;4.15;73.41;96647.38;5094050;28;20222;-69
2022/01/31 05:30:28;;;;;;;4.70;3.60;;;;;;;4.12;73.50;96659.81;5076537;28;20641;-67
2022/01/31 05:32:54;;;;;;;4.63;4.13;;;;;;;4.14;73.61;96637.88;5076382;28;20206;-68
2022/01/31 05:35:21;;;;;;;4.53;4.00;;;;;;;4.25;73.15;96635.34;5089164;28;20206;-69
2022/01/31 05:37:47;;;;;;;6.00;3.90;;;;;;;4.22;73.75;96625.06;5084849;28;20218;-68
2022/01/31 05:40:14;;;;;;;5.43;3.97;;;;;;;4.33;72.86;96633.03;5084889;28;20208;-69
2022/01/31 05:42:40;;;;;;;4.80;3.80;;;;;;;4.44;71.96;96637.53;5099727;28;20225;-68
2022/01/31 05:45:09;;;;;;;4.33;3.93;;;;;;;4.46;71.69;96628.63;5076514;28;20220;-69
2022/01/31 05:47:36;;;;;;;5.90;4.23;;;;;;;4.41;72.35;96646.44;5076266;28;20221;-67
2022/01/31 05:50:02;;;;;;;4.30;3.57;;;;;;;4.46;71.85;96641.72;5076002;28;20238;-68
2022/01/31 05:52:29;;;;;;;4.80;4.30;;;;;;;4.40;72.07;96628.22;5076065;28;20321;-67
2022/01/31 05:54:55;;;;;;;4.57;3.60;;;;;;;4.39;71.88;96616.91;5077510;28;20206;-68
2022/01/31 05:57:22;;;;;;;5.70;4.00;;;;;;;4.41;71.66;96614.19;5096169;28;20209;-69
2022/01/31 05:59:48;;;;;;;4.00;3.60;;;;;;;4.42;71.60;96605.41;5095941;28;20209;-68
2022/01/31 06:02:16;;;;;;;5.03;3.70;;;;;;;4.51;71.62;96604.75;5096863;28;20210;-69
2022/01/31 06:04:43;;;;;;;4.60;3.70;;;;;;;4.54;71.12;96620.25;5096121;28;20272;-68
2022/01/31 06:07:09;;;;;;;4.87;3.57;;;;;;;4.53;71.42;96610.72;5096021;28;20205;-68
2022/01/31 06:09:37;;;;;;;4.37;3.40;;;;;;;4.55;70.16;96595.75;5095949;28;20217;-69
2022/01/31 06:12:05;;;;;;;3.43;3.13;;;;;;;4.35;71.31;96589.28;5096470;28;20202;-67
2022/01/31 06:14:32;;;;;;;3.20;2.90;;;;;;;4.34;71.26;96599.84;5095948;28;20270;-68
2022/01/31 06:16:59;;;;;;;3.80;3.30;;;;;;;4.44;71.28;96583.41;5085301;28;20293;-67
2022/01/31 06:19:27;;;;;;;3.63;3.13;;;;;;;4.57;70.61;96587.78;5077826;28;20232;-67
2022/01/31 06:21:53;;;;;;;4.10;3.70;;;;;;;4.51;70.52;96584.63;5091113;28;20202;-68
2022/01/31 06:24:20;;;;;;;4.63;3.40;;;;;;;4.59;70.03;96581.50;5096438;28;20252;-65
2022/01/31 06:26:46;;;;;;;5.03;3.50;;;;;;;4.57;70.70;96587.78;5086268;28;20206;-69
2022/01/31 06:29:13;;;;;;;4.13;3.30;;;;;;;4.51;70.83;96584.63;5079245;28;20238;-68
2022/01/31 06:31:39;;;;;;;6.57;3.10;;;;;;;4.64;70.63;96579.34;5084300;28;20211;-68
2022/01/31 06:34:06;;;;;;;3.20;2.90;;;;;;;4.55;70.75;96574.78;5099889;28;20212;-67
2022/01/31 06:36:34;;;;;;;2.73;2.53;;;;;;;4.60;70.59;96577.09;5088595;28;20225;-68
2022/01/31 06:39:00;;;;;;;4.30;2.80;;;;;;;4.80;69.64;96574.72;5094764;28;20206;-68
2022/01/31 06:41:28;;;;;;;4.07;2.53;;;;;;;4.73;69.82;96562.16;5097686;28;20205;-68
2022/01/31 06:43:55;;;;;;;4.60;3.03;;;;;;;4.57;70.93;96570.25;5082168;28;20580;-68
2022/01/31 06:46:21;;;;;;;6.00;2.90;;;;;;;4.61;71.07;96573.50;5090222;28;20273;-68
2022/01/31 06:48:48;;;;;;;4.70;3.20;;;;;;;4.62;70.83;96578.66;5109586;28;20210;-69
2022/01/31 06:51:14;;;;;;;4.53;2.97;;;;;;;4.72;70.14;96569.19;5115993;28;20214;-69
2022/01/31 06:53:42;;;;;;;16.97;3.30;;;;;;;4.63;71.09;96567.25;5115240;28;20205;-69
2022/01/31 06:56:09;;;;;;;3.57;3.07;;;;;;;4.78;70.51;96579.22;5100854;28;20216;-68
2022/01/31 06:58:35;;;;;;;3.27;2.70;;;;;;;4.82;70.25;96578.06;5092843;28;20613;-67
2022/01/31 07:01:02;;;;;;;4.10;2.60;;;;;;;4.86;70.23;96581.28;5094745;28;20660;-68
2022/01/31 07:03:28;;;;;;;3.63;2.53;;;;;;;4.87;70.58;96569.88;5089534;28;20233;-70
2022/01/31 07:05:55;;;;;;;3.10;2.50;;;;;;;4.90;70.09;96574.91;5091169;28;20205;-68
2022/01/31 07:08:22;;;;;;;3.70;2.83;;;;;;;4.98;70.15;96588.28;5090490;28;20200;-68
2022/01/31 07:10:52;;;;;;;3.53;2.63;;;;;;;5.06;69.63;96578.09;5096601;28;20244;-68
2022/01/31 07:13:35;;;;;;;5.00;2.90;;;;;;;5.05;69.55;96583.44;5086713;28;20223;-67
2022/01/31 07:16:01;;;;;;;4.07;3.00;;;;;;;5.05;69.14;96565.09;5095006;28;20197;-68
2022/01/31 07:18:28;;;;;;;4.30;2.70;;;;;;;5.13;69.13;96566.22;5086011;28;20202;-67
2022/01/31 07:20:56;;;;;;;3.33;3.03;;;;;;;5.18;68.77;96563.25;5093647;28;20633;-67
2022/01/31 07:23:26;;;;;;;6.30;3.00;;;;;;;5.14;69.45;96565.25;5098754;28;20229;-67
2022/01/31 07:25:54;;;;;;;4.27;3.03;;;;;;;5.26;68.77;96561.75;5098535;28;20579;-67
2022/01/31 07:28:21;;;;;;;5.40;2.83;;;;;;;5.27;68.55;96552.09;5098704;28;20216;-68
2022/01/31 07:30:49;;;;;;;3.57;2.90;;;;;;;5.28;68.94;96538.06;5085060;28;20217;-66
2022/01/31 07:33:16;;;;;;;3.57;2.80;;;;;;;5.38;68.20;96528.56;5099084;28;20205;-67
2022/01/31 07:35:43;;;;;;;3.17;2.73;;;;;;;5.36;68.48;96525.19;5098650;28;20209;-68
2022/01/31 07:38:11;;;;;;;6.23;2.87;;;;;;;5.54;68.38;96523.81;5102890;28;20197;-68
2022/01/31 07:40:37;;;;;;;4.07;2.67;;;;;;;5.55;68.81;96516.78;5118524;28;20213;-68
2022/01/31 07:43:05;;;;;;;4.30;2.70;;;;;;;5.53;68.29;96508.22;5115887;28;20202;-67
2022/01/31 07:45:31;;;;;;;3.60;2.70;;;;;;;5.54;69.03;96513.34;5101002;28;20209;-67
2022/01/31 07:47:58;;;;;;;3.47;2.47;;;;;;;5.56;69.08;96506.19;5098001;28;20210;-66
2022/01/31 07:50:25;;;;;;;8.07;3.17;;;;;;;5.50;68.77;96507.47;5094230;28;20240;-67
2022/01/31 07:52:51;;;;;;;4.63;2.63;;;;;;;5.61;68.52;96514.53;5095743;28;20198;-69
2022/01/31 07:55:18;;;;;;;3.03;2.43;;;;;;;5.55;68.87;96499.28;5098488;28;20597;-68
2022/01/31 07:57:46;;;;;;;3.53;2.57;;;;;;;5.59;68.40;96502.50;5097919;28;20237;-67
2022/01/31 08:00:15;;;;;;;4.33;2.60;;;;;;;5.83;68.46;96503.25;5097623;28;20293;-67
2022/01/31 08:02:42;;;;;;;2.33;2.13;;;;;;;5.77;69.00;96469.63;5097407;28;20542;-70
2022/01/31 08:05:09;;;;;;;4.53;2.60;;;;;;;5.67;70.61;96489.66;5097407;28;20222;-68
2022/01/31 08:07:36;;;;;;;2.90;2.33;;;;;;;5.51;71.83;96466.34;5088934;28;20205;-68
2022/01/31 08:10:03;;;;;;;2.73;2.53;;;;;;;5.52;72.37;96483.78;5094322;28;20205;-68
2022/01/31 08:12:30;;;;;;;4.00;2.63;;;;;;;5.39;72.96;96478.59;5094301;28;20242;-68
2022/01/31 08:15:02;;;;;;;2.70;2.50;;;;;;;5.37;73.49;96474.44;5092141;28;20218;-68
2022/01/31 08:17:30;;;;;;;2.67;2.13;;;;;;;5.36;73.25;96475.38;5097280;28;20317;-68
2022/01/31 08:19:57;;;;;;;4.03;2.83;;;;;;;5.43;72.42;96447.75;5090058;28;20657;-67
2022/01/31 08:22:23;;;;;;;2.67;2.47;;;;;;;5.23;74.33;96451.03;5094321;28;20202;-68
2022/01/31 08:24:50;;;;;;;2.90;2.60;;;;;;;5.29;73.32;96461.06;5097399;28;20542;-67
2022/01/31 08:27:16;;;;;;;2.40;2.20;;;;;;;5.32;72.86;96468.69;5097990;28;20213;-69
2022/01/31 08:29:43;;;;;;;2.60;2.40;;;;;;;5.42;71.47;96451.34;5097740;28;20218;-68
2022/01/31 08:32:17;;;;;;;4.70;2.50;;;;;;;5.49;71.95;96463.84;5097530;28;20244;-69
2022/01/31 08:37:29;;;;;;;2.60;2.40;;;;;;;5.53;71.72;96468.88;5097532;28;20278;-67
2022/01/31 08:39:57;;;;;;;2.67;2.30;;;;;;;5.48;72.76;96466.59;5087652;28;20218;-67
2022/01/31 08:42:23;;;;;;;3.43;2.40;;;;;;;5.37;74.73;96464.78;5096159;28;20290;-68
2022/01/31 08:44:50;;;;;;;2.67;2.47;;;;;;;5.40;75.49;96476.81;5076800;28;20230;-68
2022/01/31 08:47:17;;;;;;;3.40;2.47;;;;;;;5.28;76.65;96443.69;5077275;28;20210;-69
2022/01/31 08:49:45;;;;;;;3.13;2.00;;;;;;;5.13;77.26;96440.41;5076707;28;20247;-68
2022/01/31 08:52:11;;;;;;;2.77;2.50;;;;;;;5.16;77.34;96450.66;5076798;28;20210;-67
2022/01/31 08:54:38;;;;;;;2.77;2.00;;;;;;;5.15;77.86;96458.63;5076719;28;20618;-69
2022/01/31 08:57:05;;;;;;;4.13;2.10;;;;;;;5.14;78.11;96451.72;5096172;28;20271;-69
2022/01/31 08:59:32;;;;;;;4.43;2.73;;;;;;;5.10;79.05;96445.06;5096879;28;20217;-67
2022/01/31 09:02:06;;;;;;;2.80;2.50;;;;;;;4.99;79.78;96445.84;5082995;28;20550;-68
2022/01/31 09:04:35;;;;;;;3.13;2.23;;;;;;;4.79;81.24;96422.88;5097024;28;20535;-67
2022/01/31 09:07:03;;;;;;;2.27;2.10;;;;;;;4.82;81.98;96428.75;5088093;28;20243;-68
2022/01/31 09:09:31;;;;;;;2.50;2.30;;;;;;;4.71;82.54;96418.22;5076166;28;20214;-66
2022/01/31 09:11:58;;;;;;;2.43;2.23;;;;;;;4.64;83.45;96445.78;5076119;28;20672;-68
2022/01/31 09:14:24;;;;;;;3.53;2.00;;;;;;;4.55;84.33;96436.00;5076759;28;20297;-68
2022/01/31 09:16:51;;;;;;;2.20;2.00;;;;;;;4.47;84.78;96431.31;5075603;28;20198;-67
2022/01/31 09:19:18;;;;;;;9.33;2.37;;;;;;;4.39;86.31;96431.03;5076466;28;20211;-68
2022/01/31 09:21:45;;;;;;;2.33;2.13;;;;;;;4.58;84.71;96427.91;5076393;28;20530;-68
2022/01/31 09:24:13;;;;;;;2.53;2.33;;;;;;;4.48;85.94;96427.75;5076497;28;20558;-67
2022/01/31 09:26:39;;;;;;;3.00;1.90;;;;;;;4.43;85.72;96436.88;5076355;28;20210;-67
2022/01/31 09:29:06;;;;;;;2.23;2.00;;;;;;;4.34;86.72;96429.69;5081777;28;20649;-68
2022/01/31 09:31:32;;;;;;;1.80;1.70;;;;;;;4.40;86.97;96431.88;5097478;28;20205;-69
2022/01/31 09:33:58;;;;;;;2.03;1.83;;;;;;;4.49;86.73;96424.22;5095619;28;20202;-68
2022/01/31 09:36:27;;;;;;;1.80;1.70;;;;;;;4.51;85.83;96418.84;5086822;28;20206;-68
2022/01/31 09:38:54;;;;;;;2.00;1.90;;;;;;;4.53;85.12;96423.97;5092524;28;20274;-67
2022/01/31 09:41:25;;;;;;;1.70;1.60;;;;;;;4.47;85.67;96427.84;5095791;28;20594;-68
2022/01/31 09:44:09;;;;;;;2.20;2.00;;;;;;;4.37;86.25;96427.69;5081284;28;20662;-68
2022/01/31 09:49:20;;;;;;;1.53;1.43;;;;;;;4.28;86.09;96430.16;5084313;28;20291;-67
2022/01/31 09:51:47;;;;;;;1.60;1.50;;;;;;;4.19;86.89;96436.88;5096651;28;20227;-69
2022/01/31 09:54:13;;;;;;;1.60;1.50;;;;;;;4.20;86.43;96427.22;5096171;28;20520;-67
2022/01/31 09:56:43;;;;;;;1.80;1.70;;;;;;;4.08;87.40;96433.31;5095920;28;20217;-68
2022/01/31 09:59:11;;;;;;;1.53;1.43;;;;;;;3.92;88.42;96429.19;5096206;28;21137;-68
2022/01/31 10:01:41;;;;;;;1.23;1.20;;;;;;;4.04;88.08;96434.50;5096455;28;20209;-69
2022/01/31 10:04:14;;;;;;;1.60;1.50;;;;;;;4.01;88.97;96440.78;5095806;28;20267;-68
2022/01/31 10:06:42;;;;;;;1.47;1.37;;;;;;;4.10;88.30;96423.59;5091018;28;20206;-67
2022/01/31 10:09:11;;;;;;;1.50;1.40;;;;;;;3.97;88.99;96427.06;5076223;28;20266;-67
2022/01/31 10:11:43;;;;;;;1.10;1.10;;;;;;;4.07;88.26;96435.13;5080974;28;20240;-67
2022/01/31 10:16:58;;;;;;;1.20;1.10;;;;;;;4.11;88.16;96427.91;5084684;28;20216;-68
2022/01/31 10:19:24;;;;;;;1.20;1.20;;;;;;;4.15;87.69;96440.63;5095319;28;20602;-68
2022/01/31 10:22:02;;;;;;;1.37;1.37;;;;;;;4.24;87.20;96426.06;5095883;28;20529;-68
2022/01/31 10:24:30;;;;;;;1.20;1.10;;;;;;;4.19;86.79;96430.78;5095755;28;20213;-69
2022/01/31 10:26:57;;;;;;;1.57;1.20;;;;;;;4.12;87.54;96429.56;5083841;28;20660;-68
2022/01/31 10:29:25;;;;;;;1.30;1.20;;;;;;;4.12;87.68;96425.16;5075367;28;20210;-66
2022/01/31 10:32:02;;;;;;;1.10;1.10;;;;;;;4.19;87.68;96420.31;5075299;28;20217;-68
2022/01/31 10:34:30;;;;;;;1.40;1.30;;;;;;;4.22;87.75;96433.19;5082413;28;20243;-68
2022/01/31 10:37:02;;;;;;;1.33;1.10;;;;;;;4.13;87.99;96442.53;5095275;28;20226;-68
2022/01/31 10:45:27;;;;;;;1.37;1.27;;;;;;;4.15;87.63;96447.66;5075956;28;20544;-72
2022/01/31 10:51:09;;;;;;;1.20;1.10;;;;;;;4.07;88.03;96442.13;5099443;28;20315;-71
2022/01/31 10:53:39;;;;;;;1.13;1.13;;;;;;;4.08;88.23;96443.78;5099360;28;20216;-72
2022/01/31 10:56:05;;;;;;;1.00;1.00;;;;;;;4.10;88.76;96428.84;5098838;28;20300;-69
2022/01/31 10:58:32;;;;;;;1.20;1.10;;;;;;;4.13;88.40;96423.38;5098875;28;20216;-71
2022/01/31 11:01:13;;;;;;;1.50;1.00;;;;;;;4.04;88.97;96443.19;5099335;28;20213;-70
2022/01/31 11:03:40;;;;;;;0.93;0.93;;;;;;;4.01;89.43;96457.31;5099098;28;20291;-72
2022/01/31 11:06:09;;;;;;;1.43;1.33;;;;;;;4.06;89.69;96461.41;5098480;28;20217;-70
2022/01/31 11:08:36;;;;;;;1.43;1.20;;;;;;;3.95;90.45;96468.22;5078562;28;20218;-71
2022/01/31 11:11:02;;;;;;;1.00;1.00;;;;;;;3.87;90.64;96467.91;5077702;28;20230;-74
2022/01/31 11:13:31;;;;;;;1.93;1.43;;;;;;;3.76;90.64;96470.44;5078305;28;20214;-70
2022/01/31 11:15:58;;;;;;;1.37;1.27;;;;;;;3.57;89.70;96470.03;5078215;28;20210;-70
2022/01/31 11:18:29;;;;;;;1.07;0.77;;;;;;;3.55;89.58;96466.66;5087321;28;20214;-70
2022/01/31 11:21:00;;;;;;;0.97;0.97;;;;;;;3.29;90.05;96463.22;5102374;28;20254;-71
2022/01/31 11:23:28;;;;;;;0.60;0.60;;;;;;;3.25;89.79;96469.59;5114159;28;20198;-72
2022/01/31 11:25:57;;;;;;;0.57;0.40;;;;;;;3.12;89.43;96462.69;5098907;28;20232;-74
2022/01/31 11:28:24;;;;;;;0.97;0.53;;;;;;;3.05;90.22;96466.63;5098460;28;20229;-73
2022/01/31 11:30:51;;;;;;;0.70;0.70;;;;;;;2.98;90.67;96472.25;5098975;28;20213;-74
2022/01/31 11:33:19;;;;;;;0.63;0.63;;;;;;;2.94;90.92;96452.50;5098796;28;20274;-71
2022/01/31 11:35:48;;;;;;;0.40;0.40;;;;;;;2.96;91.94;96473.28;5099284;28;20527;-70
2022/01/31 11:38:15;;;;;;;1.07;0.40;;;;;;;2.97;92.99;96457.53;5098742;28;20209;-70
2022/01/31 11:40:42;;;;;;;0.97;0.40;;;;;;;3.05;93.38;96454.38;5089863;28;20204;-70
2022/01/31 11:43:09;;;;;;;0.40;0.40;;;;;;;3.16;94.99;96445.84;5082743;28;20652;-70
2022/01/31 11:45:38;;;;;;;2.53;0.90;;;;;;;3.36;94.03;96424.44;5078158;28;20236;-69
2022/01/31 11:48:06;;;;;;;1.17;1.17;;;;;;;3.70;91.72;96418.56;5079595;28;20287;-70
2022/01/31 11:50:43;;;;;;;1.13;1.10;;;;;;;3.92;91.73;96405.66;5078401;28;20241;-70
2022/01/31 11:53:10;;;;;;;1.43;1.33;;;;;;;4.04;90.95;96400.50;5077961;28;20592;-71
2022/01/31 11:55:38;;;;;;;0.90;0.90;;;;;;;4.08;90.76;96394.06;5085049;28;20236;-71
2022/01/31 11:58:06;;;;;;;1.23;1.13;;;;;;;4.30;90.13;96397.69;5098333;28;20200;-71
2022/01/31 12:00:36;;;;;;;1.83;1.40;;;;;;;4.38;90.16;96402.34;5098222;28;20244;-71